sensor_id;sensor_type;location;lat;lon;timestamp;P1;durP1;ratioP1;P2;durP2;ratioP2
20101;SDS011;10210;52.284;9.892;2023-05-10T00:00:33;8.37;;;3.20;;
20101;SDS011;10210;52.284;9.892;2023-05-10T00:02:59;8.97;;;3.10;;
20101;SDS011;10210;52.284;9.892;2023-05-10T00:05:25;7.77;;;3.20;;
20101;SDS011;10210;52.284;9.892;2023-05-10T00:07:50;9.27;;;3.20;;
20101;SDS011;10210;52.284;9.892;2023-05-10T00:10:16;7.07;;;2.93;;
20101;SDS011;10210;52.284;9.892;2023-05-10T00:12:42;7.10;;;2.63;;
20101;SDS011;10210;52.284;9.892;2023-05-10T00:15:08;7.77;;;2.63;;
20101;SDS011;10210;52.284;9.892;2023-05-10T00:17:34;7.97;;;2.97;;
20101;SDS011;10210;52.284;9.892;2023-05-10T00:20:00;7.83;;;3.13;;
20101;SDS011;10210;52.284;9.892;2023-05-10T00:22:25;6.23;;;2.70;;
20101;SDS011;10210;52.284;9.892;2023-05-10T00:24:51;6.83;;;2.83;;
20101;SDS011;10210;52.284;9.892;2023-05-10T00:27:17;6.97;;;2.70;;
20101;SDS011;10210;52.284;9.892;2023-05-10T00:29:42;8.37;;;3.00;;
20101;SDS011;10210;52.284;9.892;2023-05-10T00:32:08;8.57;;;2.90;;
20101;SDS011;10210;52.284;9.892;2023-05-10T00:34:33;6.93;;;3.00;;
20101;SDS011;10210;52.284;9.892;2023-05-10T00:36:59;7.87;;;2.93;;
20101;SDS011;10210;52.284;9.892;2023-05-10T00:39:25;7.37;;;2.90;;
20101;SDS011;10210;52.284;9.892;2023-05-10T00:41:51;9.67;;;3.20;;
20101;SDS011;10210;52.284;9.892;2023-05-10T00:44:17;7.23;;;3.07;;
20101;SDS011;10210;52.284;9.892;2023-05-10T00:46:43;6.47;;;2.70;;
20101;SDS011;10210;52.284;9.892;2023-05-10T00:49:10;9.40;;;3.10;;
20101;SDS011;10210;52.284;9.892;2023-05-10T00:51:36;8.37;;;3.10;;
20101;SDS011;10210;52.284;9.892;2023-05-10T00:54:02;8.77;;;3.20;;
20101;SDS011;10210;52.284;9.892;2023-05-10T00:56:28;8.23;;;3.20;;
20101;SDS011;10210;52.284;9.892;2023-05-10T00:58:54;9.33;;;3.33;;
20101;SDS011;10210;52.284;9.892;2023-05-10T01:01:20;10.93;;;3.77;;
20101;SDS011;10210;52.284;9.892;2023-05-10T01:03:46;9.30;;;3.57;;
20101;SDS011;10210;52.284;9.892;2023-05-10T01:06:12;11.97;;;3.67;;
20101;SDS011;10210;52.284;9.892;2023-05-10T01:08:38;8.97;;;3.60;;
20101;SDS011;10210;52.284;9.892;2023-05-10T01:11:05;8.43;;;3.33;;
20101;SDS011;10210;52.284;9.892;2023-05-10T01:13:33;8.47;;;3.43;;
20101;SDS011;10210;52.284;9.892;2023-05-10T01:16:02;8.40;;;3.40;;
20101;SDS011;10210;52.284;9.892;2023-05-10T01:18:30;9.87;;;3.53;;
20101;SDS011;10210;52.284;9.892;2023-05-10T01:29:53;8.60;;;3.43;;
20101;SDS011;10210;52.284;9.892;2023-05-10T01:33:23;7.77;;;3.27;;
20101;SDS011;10210;52.284;9.892;2023-05-10T01:35:55;7.53;;;3.33;;
20101;SDS011;10210;52.284;9.892;2023-05-10T01:41:16;10.60;;;3.73;;
20101;SDS011;10210;52.284;9.892;2023-05-10T01:43:48;9.50;;;3.73;;
20101;SDS011;10210;52.284;9.892;2023-05-10T01:46:27;10.80;;;3.47;;
20101;SDS011;10210;52.284;9.892;2023-05-10T01:49:02;9.37;;;4.20;;
20101;SDS011;10210;52.284;9.892;2023-05-10T01:51:41;10.17;;;3.97;;
20101;SDS011;10210;52.284;9.892;2023-05-10T01:54:17;10.60;;;4.00;;
20101;SDS011;10210;52.284;9.892;2023-05-10T01:56:47;11.57;;;3.97;;
20101;SDS011;10210;52.284;9.892;2023-05-10T01:59:20;12.37;;;4.33;;
20101;SDS011;10210;52.284;9.892;2023-05-10T02:01:50;11.17;;;3.83;;
20101;SDS011;10210;52.284;9.892;2023-05-10T02:04:18;9.20;;;3.93;;
20101;SDS011;10210;52.284;9.892;2023-05-10T02:06:48;10.57;;;4.17;;
20101;SDS011;10210;52.284;9.892;2023-05-10T02:09:16;9.87;;;4.00;;
20101;SDS011;10210;52.284;9.892;2023-05-10T02:11:44;10.87;;;4.30;;
20101;SDS011;10210;52.284;9.892;2023-05-10T02:14:12;12.00;;;4.50;;
20101;SDS011;10210;52.284;9.892;2023-05-10T02:16:40;8.57;;;3.70;;
20101;SDS011;10210;52.284;9.892;2023-05-10T02:19:07;10.53;;;4.27;;
20101;SDS011;10210;52.284;9.892;2023-05-10T02:21:33;11.43;;;4.20;;
20101;SDS011;10210;52.284;9.892;2023-05-10T02:24:01;8.20;;;3.70;;
20101;SDS011;10210;52.284;9.892;2023-05-10T02:26:29;10.50;;;4.50;;
20101;SDS011;10210;52.284;9.892;2023-05-10T02:28:57;11.93;;;4.57;;
20101;SDS011;10210;52.284;9.892;2023-05-10T02:31:23;10.53;;;4.43;;
20101;SDS011;10210;52.284;9.892;2023-05-10T02:33:50;8.60;;;3.93;;
20101;SDS011;10210;52.284;9.892;2023-05-10T02:36:18;10.53;;;4.20;;
20101;SDS011;10210;52.284;9.892;2023-05-10T02:38:46;10.23;;;4.40;;
20101;SDS011;10210;52.284;9.892;2023-05-10T02:41:14;13.23;;;4.23;;
20101;SDS011;10210;52.284;9.892;2023-05-10T02:43:41;10.57;;;4.67;;
20101;SDS011;10210;52.284;9.892;2023-05-10T02:46:09;11.27;;;4.60;;
20101;SDS011;10210;52.284;9.892;2023-05-10T02:48:34;13.03;;;4.83;;
20101;SDS011;10210;52.284;9.892;2023-05-10T02:51:03;11.83;;;5.00;;
20101;SDS011;10210;52.284;9.892;2023-05-10T02:53:33;10.77;;;4.63;;
20101;SDS011;10210;52.284;9.892;2023-05-10T02:56:12;10.40;;;4.50;;
20101;SDS011;10210;52.284;9.892;2023-05-10T02:58:44;10.97;;;4.80;;
20101;SDS011;10210;52.284;9.892;2023-05-10T03:01:11;12.10;;;4.67;;
20101;SDS011;10210;52.284;9.892;2023-05-10T03:03:36;10.37;;;4.37;;
20101;SDS011;10210;52.284;9.892;2023-05-10T03:06:02;11.40;;;4.63;;
20101;SDS011;10210;52.284;9.892;2023-05-10T03:08:28;11.30;;;4.60;;
20101;SDS011;10210;52.284;9.892;2023-05-10T03:11:01;12.23;;;5.07;;
20101;SDS011;10210;52.284;9.892;2023-05-10T03:17:06;10.50;;;4.43;;
20101;SDS011;10210;52.284;9.892;2023-05-10T03:22:26;11.13;;;4.80;;
20101;SDS011;10210;52.284;9.892;2023-05-10T03:25:17;12.13;;;4.53;;
20101;SDS011;10210;52.284;9.892;2023-05-10T03:27:46;10.60;;;4.53;;
20101;SDS011;10210;52.284;9.892;2023-05-10T03:30:13;11.90;;;5.00;;
20101;SDS011;10210;52.284;9.892;2023-05-10T03:32:41;12.90;;;5.23;;
20101;SDS011;10210;52.284;9.892;2023-05-10T03:35:10;10.43;;;4.67;;
20101;SDS011;10210;52.284;9.892;2023-05-10T03:37:38;9.53;;;4.37;;
20101;SDS011;10210;52.284;9.892;2023-05-10T03:40:04;12.77;;;5.57;;
20101;SDS011;10210;52.284;9.892;2023-05-10T03:42:30;12.67;;;5.57;;
20101;SDS011;10210;52.284;9.892;2023-05-10T03:44:56;12.17;;;4.90;;
20101;SDS011;10210;52.284;9.892;2023-05-10T03:47:22;12.90;;;5.40;;
20101;SDS011;10210;52.284;9.892;2023-05-10T03:49:49;12.83;;;5.53;;
20101;SDS011;10210;52.284;9.892;2023-05-10T03:52:15;12.53;;;5.30;;
20101;SDS011;10210;52.284;9.892;2023-05-10T03:54:40;11.90;;;5.17;;
20101;SDS011;10210;52.284;9.892;2023-05-10T03:57:06;14.30;;;4.90;;
20101;SDS011;10210;52.284;9.892;2023-05-10T03:59:32;12.27;;;5.10;;
20101;SDS011;10210;52.284;9.892;2023-05-10T04:01:57;14.43;;;5.20;;
20101;SDS011;10210;52.284;9.892;2023-05-10T04:04:23;12.53;;;5.57;;
20101;SDS011;10210;52.284;9.892;2023-05-10T04:06:49;12.83;;;5.70;;
20101;SDS011;10210;52.284;9.892;2023-05-10T04:09:15;11.97;;;5.10;;
20101;SDS011;10210;52.284;9.892;2023-05-10T04:11:42;15.80;;;5.00;;
20101;SDS011;10210;52.284;9.892;2023-05-10T04:14:07;14.03;;;5.33;;
20101;SDS011;10210;52.284;9.892;2023-05-10T04:16:35;12.60;;;5.07;;
20101;SDS011;10210;52.284;9.892;2023-05-10T04:19:00;11.53;;;5.17;;
20101;SDS011;10210;52.284;9.892;2023-05-10T04:21:26;11.27;;;5.40;;
20101;SDS011;10210;52.284;9.892;2023-05-10T04:23:51;11.83;;;5.37;;
20101;SDS011;10210;52.284;9.892;2023-05-10T04:26:17;11.03;;;5.10;;
20101;SDS011;10210;52.284;9.892;2023-05-10T04:28:43;13.07;;;5.27;;
20101;SDS011;10210;52.284;9.892;2023-05-10T04:31:09;11.43;;;5.00;;
20101;SDS011;10210;52.284;9.892;2023-05-10T04:33:35;12.67;;;5.40;;
20101;SDS011;10210;52.284;9.892;2023-05-10T04:36:01;12.40;;;5.17;;
20101;SDS011;10210;52.284;9.892;2023-05-10T04:38:28;13.13;;;5.50;;
20101;SDS011;10210;52.284;9.892;2023-05-10T04:40:54;12.57;;;5.37;;
20101;SDS011;10210;52.284;9.892;2023-05-10T04:43:30;10.67;;;5.27;;
20101;SDS011;10210;52.284;9.892;2023-05-10T04:45:58;12.97;;;5.10;;
20101;SDS011;10210;52.284;9.892;2023-05-10T04:48:24;12.60;;;5.60;;
20101;SDS011;10210;52.284;9.892;2023-05-10T04:50:50;13.30;;;5.67;;
20101;SDS011;10210;52.284;9.892;2023-05-10T04:53:15;13.83;;;6.00;;
20101;SDS011;10210;52.284;9.892;2023-05-10T04:55:41;14.17;;;5.47;;
20101;SDS011;10210;52.284;9.892;2023-05-10T04:58:07;15.40;;;5.73;;
20101;SDS011;10210;52.284;9.892;2023-05-10T05:00:33;12.73;;;5.67;;
20101;SDS011;10210;52.284;9.892;2023-05-10T05:02:59;11.63;;;5.43;;
20101;SDS011;10210;52.284;9.892;2023-05-10T05:05:24;12.43;;;5.40;;
20101;SDS011;10210;52.284;9.892;2023-05-10T05:07:50;13.87;;;5.57;;
20101;SDS011;10210;52.284;9.892;2023-05-10T05:10:16;12.00;;;5.07;;
20101;SDS011;10210;52.284;9.892;2023-05-10T05:12:41;12.97;;;5.40;;
20101;SDS011;10210;52.284;9.892;2023-05-10T05:15:07;12.70;;;5.30;;
20101;SDS011;10210;52.284;9.892;2023-05-10T05:17:34;12.30;;;5.50;;
20101;SDS011;10210;52.284;9.892;2023-05-10T05:20:00;12.03;;;5.20;;
20101;SDS011;10210;52.284;9.892;2023-05-10T05:22:26;12.27;;;5.80;;
20101;SDS011;10210;52.284;9.892;2023-05-10T05:24:56;13.93;;;5.93;;
20101;SDS011;10210;52.284;9.892;2023-05-10T05:27:23;12.30;;;5.90;;
20101;SDS011;10210;52.284;9.892;2023-05-10T05:29:54;12.20;;;6.20;;
20101;SDS011;10210;52.284;9.892;2023-05-10T05:32:21;11.43;;;5.43;;
20101;SDS011;10210;52.284;9.892;2023-05-10T05:34:47;11.73;;;5.50;;
20101;SDS011;10210;52.284;9.892;2023-05-10T05:37:19;11.53;;;5.30;;
20101;SDS011;10210;52.284;9.892;2023-05-10T05:39:46;13.00;;;6.03;;
20101;SDS011;10210;52.284;9.892;2023-05-10T05:42:12;12.63;;;5.50;;
20101;SDS011;10210;52.284;9.892;2023-05-10T05:44:38;14.57;;;6.27;;
20101;SDS011;10210;52.284;9.892;2023-05-10T05:47:04;12.27;;;5.80;;
20101;SDS011;10210;52.284;9.892;2023-05-10T05:49:31;11.80;;;5.57;;
20101;SDS011;10210;52.284;9.892;2023-05-10T05:52:00;12.27;;;5.23;;
20101;SDS011;10210;52.284;9.892;2023-05-10T05:54:28;11.30;;;5.20;;
20101;SDS011;10210;52.284;9.892;2023-05-10T05:56:56;12.10;;;5.10;;
20101;SDS011;10210;52.284;9.892;2023-05-10T05:59:23;12.53;;;5.37;;
20101;SDS011;10210;52.284;9.892;2023-05-10T06:01:49;11.00;;;5.10;;
20101;SDS011;10210;52.284;9.892;2023-05-10T06:04:16;12.97;;;5.93;;
20101;SDS011;10210;52.284;9.892;2023-05-10T06:06:42;15.43;;;5.73;;
20101;SDS011;10210;52.284;9.892;2023-05-10T06:09:08;12.43;;;5.33;;
20101;SDS011;10210;52.284;9.892;2023-05-10T06:11:34;11.53;;;5.20;;
20101;SDS011;10210;52.284;9.892;2023-05-10T06:14:00;12.10;;;5.53;;
20101;SDS011;10210;52.284;9.892;2023-05-10T06:16:29;13.37;;;5.83;;
20101;SDS011;10210;52.284;9.892;2023-05-10T06:18:55;13.23;;;5.50;;
20101;SDS011;10210;52.284;9.892;2023-05-10T06:21:21;12.10;;;5.40;;
20101;SDS011;10210;52.284;9.892;2023-05-10T06:23:47;12.00;;;5.50;;
20101;SDS011;10210;52.284;9.892;2023-05-10T06:26:12;12.07;;;5.47;;
20101;SDS011;10210;52.284;9.892;2023-05-10T06:28:38;11.73;;;5.50;;
20101;SDS011;10210;52.284;9.892;2023-05-10T06:31:05;12.90;;;5.87;;
20101;SDS011;10210;52.284;9.892;2023-05-10T06:33:31;13.40;;;5.47;;
20101;SDS011;10210;52.284;9.892;2023-05-10T06:35:58;13.10;;;5.83;;
20101;SDS011;10210;52.284;9.892;2023-05-10T06:38:23;11.47;;;4.97;;
20101;SDS011;10210;52.284;9.892;2023-05-10T06:40:49;11.73;;;5.00;;
20101;SDS011;10210;52.284;9.892;2023-05-10T06:43:15;12.27;;;5.27;;
20101;SDS011;10210;52.284;9.892;2023-05-10T06:45:41;10.40;;;5.03;;
20101;SDS011;10210;52.284;9.892;2023-05-10T06:48:07;11.17;;;5.40;;
20101;SDS011;10210;52.284;9.892;2023-05-10T06:50:33;13.53;;;5.40;;
20101;SDS011;10210;52.284;9.892;2023-05-10T06:52:59;14.17;;;5.83;;
20101;SDS011;10210;52.284;9.892;2023-05-10T06:55:25;13.07;;;6.17;;
20101;SDS011;10210;52.284;9.892;2023-05-10T06:57:51;13.37;;;6.00;;
20101;SDS011;10210;52.284;9.892;2023-05-10T07:00:17;13.17;;;5.90;;
20101;SDS011;10210;52.284;9.892;2023-05-10T07:02:44;13.80;;;6.87;;
20101;SDS011;10210;52.284;9.892;2023-05-10T07:05:10;12.83;;;5.97;;
20101;SDS011;10210;52.284;9.892;2023-05-10T07:07:36;11.70;;;4.57;;
20101;SDS011;10210;52.284;9.892;2023-05-10T07:10:02;11.27;;;5.30;;
20101;SDS011;10210;52.284;9.892;2023-05-10T07:12:29;11.27;;;4.97;;
20101;SDS011;10210;52.284;9.892;2023-05-10T07:14:55;11.20;;;4.70;;
20101;SDS011;10210;52.284;9.892;2023-05-10T07:17:21;13.17;;;5.03;;
20101;SDS011;10210;52.284;9.892;2023-05-10T07:19:46;12.97;;;5.23;;
20101;SDS011;10210;52.284;9.892;2023-05-10T07:22:12;14.10;;;5.57;;
20101;SDS011;10210;52.284;9.892;2023-05-10T07:24:38;11.33;;;5.13;;
20101;SDS011;10210;52.284;9.892;2023-05-10T07:27:03;12.23;;;5.77;;
20101;SDS011;10210;52.284;9.892;2023-05-10T07:29:29;13.17;;;5.80;;
20101;SDS011;10210;52.284;9.892;2023-05-10T07:31:55;13.23;;;5.40;;
20101;SDS011;10210;52.284;9.892;2023-05-10T07:34:21;13.07;;;6.03;;
20101;SDS011;10210;52.284;9.892;2023-05-10T07:36:46;12.80;;;5.30;;
20101;SDS011;10210;52.284;9.892;2023-05-10T07:39:12;11.27;;;5.20;;
20101;SDS011;10210;52.284;9.892;2023-05-10T07:41:38;11.47;;;4.83;;
20101;SDS011;10210;52.284;9.892;2023-05-10T07:44:04;10.40;;;5.03;;
20101;SDS011;10210;52.284;9.892;2023-05-10T07:46:31;11.97;;;4.30;;
20101;SDS011;10210;52.284;9.892;2023-05-10T07:48:56;11.63;;;5.30;;
20101;SDS011;10210;52.284;9.892;2023-05-10T07:51:22;12.30;;;5.03;;
20101;SDS011;10210;52.284;9.892;2023-05-10T07:53:48;12.87;;;4.90;;
20101;SDS011;10210;52.284;9.892;2023-05-10T07:56:24;11.23;;;4.87;;
20101;SDS011;10210;52.284;9.892;2023-05-10T07:58:55;12.13;;;5.40;;
20101;SDS011;10210;52.284;9.892;2023-05-10T08:01:22;12.97;;;5.83;;
20101;SDS011;10210;52.284;9.892;2023-05-10T08:03:48;11.30;;;5.63;;
20101;SDS011;10210;52.284;9.892;2023-05-10T08:06:16;13.97;;;8.30;;
20101;SDS011;10210;52.284;9.892;2023-05-10T08:08:43;15.80;;;8.87;;
20101;SDS011;10210;52.284;9.892;2023-05-10T08:11:14;14.30;;;7.50;;
20101;SDS011;10210;52.284;9.892;2023-05-10T08:13:42;12.93;;;6.13;;
20101;SDS011;10210;52.284;9.892;2023-05-10T08:16:12;11.20;;;4.53;;
20101;SDS011;10210;52.284;9.892;2023-05-10T08:18:38;8.47;;;3.70;;
20101;SDS011;10210;52.284;9.892;2023-05-10T08:21:04;7.23;;;3.30;;
20101;SDS011;10210;52.284;9.892;2023-05-10T08:23:31;11.17;;;4.50;;
20101;SDS011;10210;52.284;9.892;2023-05-10T08:25:57;11.10;;;4.10;;
20101;SDS011;10210;52.284;9.892;2023-05-10T08:28:23;9.90;;;3.40;;
20101;SDS011;10210;52.284;9.892;2023-05-10T08:30:49;7.43;;;3.10;;
20101;SDS011;10210;52.284;9.892;2023-05-10T08:33:17;6.50;;;2.70;;
20101;SDS011;10210;52.284;9.892;2023-05-10T08:35:43;5.43;;;2.50;;
20101;SDS011;10210;52.284;9.892;2023-05-10T08:38:09;6.37;;;2.23;;
20101;SDS011;10210;52.284;9.892;2023-05-10T08:40:36;4.50;;;2.00;;
20101;SDS011;10210;52.284;9.892;2023-05-10T08:43:07;3.60;;;1.77;;
20101;SDS011;10210;52.284;9.892;2023-05-10T08:45:39;2.00;;;1.27;;
20101;SDS011;10210;52.284;9.892;2023-05-10T08:48:10;2.53;;;1.20;;
20101;SDS011;10210;52.284;9.892;2023-05-10T08:50:37;1.23;;;0.90;;
20101;SDS011;10210;52.284;9.892;2023-05-10T08:53:10;1.40;;;1.00;;
20101;SDS011;10210;52.284;9.892;2023-05-10T08:55:38;1.10;;;0.90;;
20101;SDS011;10210;52.284;9.892;2023-05-10T08:58:07;1.97;;;1.10;;
20101;SDS011;10210;52.284;9.892;2023-05-10T09:00:34;2.13;;;1.20;;
20101;SDS011;10210;52.284;9.892;2023-05-10T09:03:02;3.63;;;1.00;;
20101;SDS011;10210;52.284;9.892;2023-05-10T09:05:30;1.20;;;0.73;;
20101;SDS011;10210;52.284;9.892;2023-05-10T09:07:56;3.47;;;1.10;;
20101;SDS011;10210;52.284;9.892;2023-05-10T09:10:23;1.87;;;1.00;;
20101;SDS011;10210;52.284;9.892;2023-05-10T09:12:52;2.80;;;1.10;;
20101;SDS011;10210;52.284;9.892;2023-05-10T09:15:21;2.27;;;1.10;;
20101;SDS011;10210;52.284;9.892;2023-05-10T09:17:47;1.40;;;0.90;;
20101;SDS011;10210;52.284;9.892;2023-05-10T09:20:14;0.70;;;0.70;;
20101;SDS011;10210;52.284;9.892;2023-05-10T09:22:42;2.00;;;1.00;;
20101;SDS011;10210;52.284;9.892;2023-05-10T09:25:09;2.70;;;0.90;;
20101;SDS011;10210;52.284;9.892;2023-05-10T09:27:37;0.97;;;0.90;;
20101;SDS011;10210;52.284;9.892;2023-05-10T09:30:05;1.20;;;1.03;;
20101;SDS011;10210;52.284;9.892;2023-05-10T09:33:06;1.10;;;1.00;;
20101;SDS011;10210;52.284;9.892;2023-05-10T09:35:26;2.77;;;1.10;;
20101;SDS011;10210;52.284;9.892;2023-05-10T09:37:54;1.33;;;1.03;;
20101;SDS011;10210;52.284;9.892;2023-05-10T09:40:23;2.37;;;1.20;;
20101;SDS011;10210;52.284;9.892;2023-05-10T09:42:52;2.57;;;1.20;;
20101;SDS011;10210;52.284;9.892;2023-05-10T09:45:26;4.37;;;1.13;;
20101;SDS011;10210;52.284;9.892;2023-05-10T09:47:57;1.10;;;1.00;;
20101;SDS011;10210;52.284;9.892;2023-05-10T09:50:25;2.63;;;1.23;;
20101;SDS011;10210;52.284;9.892;2023-05-10T09:52:55;2.67;;;1.23;;
20101;SDS011;10210;52.284;9.892;2023-05-10T09:58:06;4.13;;;1.60;;
20101;SDS011;10210;52.284;9.892;2023-05-10T10:00:42;2.67;;;1.30;;
20101;SDS011;10210;52.284;9.892;2023-05-10T10:03:27;2.40;;;1.10;;
20101;SDS011;10210;52.284;9.892;2023-05-10T10:05:54;3.40;;;1.10;;
20101;SDS011;10210;52.284;9.892;2023-05-10T10:08:21;1.60;;;1.10;;
20101;SDS011;10210;52.284;9.892;2023-05-10T10:10:47;1.90;;;1.20;;
20101;SDS011;10210;52.284;9.892;2023-05-10T10:13:13;2.20;;;1.20;;
20101;SDS011;10210;52.284;9.892;2023-05-10T10:15:40;3.07;;;1.20;;
20101;SDS011;10210;52.284;9.892;2023-05-10T10:18:11;4.67;;;1.40;;
20101;SDS011;10210;52.284;9.892;2023-05-10T10:20:40;2.83;;;1.40;;
20101;SDS011;10210;52.284;9.892;2023-05-10T10:23:07;3.23;;;1.60;;
20101;SDS011;10210;52.284;9.892;2023-05-10T10:25:33;3.27;;;1.57;;
20101;SDS011;10210;52.284;9.892;2023-05-10T10:30:49;3.70;;;1.63;;
20101;SDS011;10210;52.284;9.892;2023-05-10T10:33:30;4.87;;;1.50;;
20101;SDS011;10210;52.284;9.892;2023-05-10T10:36:25;4.37;;;1.60;;
20101;SDS011;10210;52.284;9.892;2023-05-10T10:38:55;2.87;;;1.67;;
20101;SDS011;10210;52.284;9.892;2023-05-10T10:41:34;4.57;;;1.90;;
20101;SDS011;10210;52.284;9.892;2023-05-10T10:52:40;5.60;;;1.90;;
20101;SDS011;10210;52.284;9.892;2023-05-10T10:55:09;4.57;;;1.90;;
20101;SDS011;10210;52.284;9.892;2023-05-10T11:02:46;5.00;;;2.40;;
20101;SDS011;10210;52.284;9.892;2023-05-10T11:07:54;8.10;;;2.60;;
20101;SDS011;10210;52.284;9.892;2023-05-10T11:10:22;4.87;;;2.27;;
20101;SDS011;10210;52.284;9.892;2023-05-10T11:13:03;5.83;;;2.40;;
20101;SDS011;10210;52.284;9.892;2023-05-10T11:15:34;5.87;;;2.33;;
20101;SDS011;10210;52.284;9.892;2023-05-10T11:18:17;4.60;;;2.03;;
20101;SDS011;10210;52.284;9.892;2023-05-10T11:21:06;5.83;;;2.33;;
20101;SDS011;10210;52.284;9.892;2023-05-10T11:23:48;5.47;;;2.50;;
20101;SDS011;10210;52.284;9.892;2023-05-10T11:26:19;6.63;;;2.77;;
20101;SDS011;10210;52.284;9.892;2023-05-10T11:28:48;8.07;;;2.67;;
20101;SDS011;10210;52.284;9.892;2023-05-10T11:31:16;5.77;;;2.50;;
20101;SDS011;10210;52.284;9.892;2023-05-10T11:36:17;6.93;;;2.80;;
20101;SDS011;10210;52.284;9.892;2023-05-10T11:38:47;5.90;;;2.57;;
20101;SDS011;10210;52.284;9.892;2023-05-10T11:41:16;7.47;;;2.87;;
20101;SDS011;10210;52.284;9.892;2023-05-10T11:43:46;6.67;;;2.47;;
20101;SDS011;10210;52.284;9.892;2023-05-10T11:46:18;8.03;;;3.20;;
20101;SDS011;10210;52.284;9.892;2023-05-10T11:48:50;7.23;;;2.93;;
20101;SDS011;10210;52.284;9.892;2023-05-10T11:51:22;9.20;;;2.87;;
20101;SDS011;10210;52.284;9.892;2023-05-10T11:53:50;8.53;;;2.83;;
20101;SDS011;10210;52.284;9.892;2023-05-10T11:56:18;7.23;;;3.10;;
20101;SDS011;10210;52.284;9.892;2023-05-10T11:58:51;7.33;;;3.10;;
20101;SDS011;10210;52.284;9.892;2023-05-10T12:01:21;8.23;;;3.27;;
20101;SDS011;10210;52.284;9.892;2023-05-10T12:03:52;7.93;;;3.07;;
20101;SDS011;10210;52.284;9.892;2023-05-10T12:06:25;8.97;;;2.73;;
20101;SDS011;10210;52.284;9.892;2023-05-10T12:08:54;9.60;;;3.60;;
20101;SDS011;10210;52.284;9.892;2023-05-10T12:11:20;6.30;;;3.10;;
20101;SDS011;10210;52.284;9.892;2023-05-10T12:13:51;6.87;;;3.13;;
20101;SDS011;10210;52.284;9.892;2023-05-10T12:16:17;7.47;;;3.30;;
20101;SDS011;10210;52.284;9.892;2023-05-10T12:18:52;9.07;;;3.20;;
20101;SDS011;10210;52.284;9.892;2023-05-10T12:21:21;8.63;;;3.00;;
20101;SDS011;10210;52.284;9.892;2023-05-10T12:23:49;7.67;;;3.17;;
20101;SDS011;10210;52.284;9.892;2023-05-10T12:26:16;8.10;;;3.23;;
20101;SDS011;10210;52.284;9.892;2023-05-10T12:28:42;8.93;;;3.23;;
20101;SDS011;10210;52.284;9.892;2023-05-10T12:31:08;7.00;;;2.80;;
20101;SDS011;10210;52.284;9.892;2023-05-10T12:33:40;7.07;;;2.53;;
20101;SDS011;10210;52.284;9.892;2023-05-10T12:36:09;8.13;;;3.10;;
20101;SDS011;10210;52.284;9.892;2023-05-10T12:38:40;7.97;;;2.90;;
20101;SDS011;10210;52.284;9.892;2023-05-10T12:41:15;8.90;;;3.50;;
20101;SDS011;10210;52.284;9.892;2023-05-10T12:43:42;9.80;;;4.00;;
20101;SDS011;10210;52.284;9.892;2023-05-10T12:46:11;8.27;;;3.47;;
20101;SDS011;10210;52.284;9.892;2023-05-10T12:48:40;9.83;;;4.17;;
20101;SDS011;10210;52.284;9.892;2023-05-10T12:51:07;9.60;;;3.67;;
20101;SDS011;10210;52.284;9.892;2023-05-10T12:53:34;10.33;;;4.17;;
20101;SDS011;10210;52.284;9.892;2023-05-10T12:56:01;9.50;;;4.00;;
20101;SDS011;10210;52.284;9.892;2023-05-10T12:58:27;9.17;;;3.97;;
20101;SDS011;10210;52.284;9.892;2023-05-10T13:00:53;9.47;;;3.80;;
20101;SDS011;10210;52.284;9.892;2023-05-10T13:03:21;9.40;;;3.77;;
20101;SDS011;10210;52.284;9.892;2023-05-10T13:05:47;8.83;;;3.17;;
20101;SDS011;10210;52.284;9.892;2023-05-10T13:08:13;9.40;;;3.43;;
20101;SDS011;10210;52.284;9.892;2023-05-10T13:10:39;8.03;;;3.47;;
20101;SDS011;10210;52.284;9.892;2023-05-10T13:13:05;9.10;;;3.53;;
20101;SDS011;10210;52.284;9.892;2023-05-10T13:15:31;8.37;;;3.37;;
20101;SDS011;10210;52.284;9.892;2023-05-10T13:17:57;7.80;;;2.97;;
20101;SDS011;10210;52.284;9.892;2023-05-10T13:20:22;8.30;;;3.30;;
20101;SDS011;10210;52.284;9.892;2023-05-10T13:22:48;8.13;;;2.90;;
20101;SDS011;10210;52.284;9.892;2023-05-10T13:25:14;5.97;;;2.40;;
20101;SDS011;10210;52.284;9.892;2023-05-10T13:27:40;5.37;;;2.20;;
20101;SDS011;10210;52.284;9.892;2023-05-10T13:30:07;5.43;;;2.13;;
20101;SDS011;10210;52.284;9.892;2023-05-10T13:32:34;6.97;;;2.73;;
20101;SDS011;10210;52.284;9.892;2023-05-10T13:35:00;8.13;;;2.80;;
20101;SDS011;10210;52.284;9.892;2023-05-10T13:37:28;3.97;;;2.03;;
20101;SDS011;10210;52.284;9.892;2023-05-10T13:39:55;2.67;;;1.70;;
20101;SDS011;10210;52.284;9.892;2023-05-10T13:42:21;4.77;;;2.20;;
20101;SDS011;10210;52.284;9.892;2023-05-10T13:44:48;7.27;;;2.20;;
20101;SDS011;10210;52.284;9.892;2023-05-10T13:47:15;4.33;;;1.70;;
20101;SDS011;10210;52.284;9.892;2023-05-10T13:49:40;5.80;;;2.13;;
20101;SDS011;10210;52.284;9.892;2023-05-10T13:52:06;4.37;;;2.10;;
20101;SDS011;10210;52.284;9.892;2023-05-10T13:54:33;5.90;;;2.00;;
20101;SDS011;10210;52.284;9.892;2023-05-10T13:56:59;5.87;;;2.07;;
20101;SDS011;10210;52.284;9.892;2023-05-10T13:59:25;6.63;;;2.30;;
20101;SDS011;10210;52.284;9.892;2023-05-10T14:01:51;6.53;;;2.30;;
20101;SDS011;10210;52.284;9.892;2023-05-10T14:04:17;8.00;;;2.67;;
20101;SDS011;10210;52.284;9.892;2023-05-10T14:06:43;6.60;;;2.80;;
20101;SDS011;10210;52.284;9.892;2023-05-10T14:09:08;7.43;;;2.50;;
20101;SDS011;10210;52.284;9.892;2023-05-10T14:11:34;6.43;;;2.40;;
20101;SDS011;10210;52.284;9.892;2023-05-10T14:14:00;6.23;;;2.37;;
20101;SDS011;10210;52.284;9.892;2023-05-10T14:16:26;3.83;;;2.07;;
20101;SDS011;10210;52.284;9.892;2023-05-10T14:18:52;5.30;;;2.57;;
20101;SDS011;10210;52.284;9.892;2023-05-10T14:21:17;5.57;;;2.50;;
20101;SDS011;10210;52.284;9.892;2023-05-10T14:23:43;5.77;;;2.53;;
20101;SDS011;10210;52.284;9.892;2023-05-10T14:26:09;9.13;;;3.10;;
20101;SDS011;10210;52.284;9.892;2023-05-10T14:28:35;6.57;;;2.60;;
20101;SDS011;10210;52.284;9.892;2023-05-10T14:31:01;8.03;;;2.60;;
20101;SDS011;10210;52.284;9.892;2023-05-10T14:33:27;6.97;;;2.77;;
20101;SDS011;10210;52.284;9.892;2023-05-10T14:35:53;7.27;;;2.97;;
20101;SDS011;10210;52.284;9.892;2023-05-10T14:38:21;7.53;;;2.93;;
20101;SDS011;10210;52.284;9.892;2023-05-10T14:40:47;8.70;;;3.20;;
20101;SDS011;10210;52.284;9.892;2023-05-10T14:43:13;6.20;;;2.50;;
20101;SDS011;10210;52.284;9.892;2023-05-10T14:45:38;7.90;;;2.90;;
20101;SDS011;10210;52.284;9.892;2023-05-10T14:48:04;7.47;;;2.80;;
20101;SDS011;10210;52.284;9.892;2023-05-10T14:50:30;6.83;;;2.80;;
20101;SDS011;10210;52.284;9.892;2023-05-10T14:52:57;6.73;;;2.80;;
20101;SDS011;10210;52.284;9.892;2023-05-10T14:55:24;8.90;;;3.00;;
20101;SDS011;10210;52.284;9.892;2023-05-10T14:57:49;6.63;;;2.87;;
20101;SDS011;10210;52.284;9.892;2023-05-10T15:00:15;6.50;;;2.40;;
20101;SDS011;10210;52.284;9.892;2023-05-10T15:02:43;7.67;;;2.50;;
20101;SDS011;10210;52.284;9.892;2023-05-10T15:05:09;7.40;;;2.80;;
20101;SDS011;10210;52.284;9.892;2023-05-10T15:07:34;6.33;;;2.80;;
20101;SDS011;10210;52.284;9.892;2023-05-10T15:10:00;6.57;;;3.00;;
20101;SDS011;10210;52.284;9.892;2023-05-10T15:12:26;7.43;;;2.60;;
20101;SDS011;10210;52.284;9.892;2023-05-10T15:14:51;6.50;;;2.70;;
20101;SDS011;10210;52.284;9.892;2023-05-10T15:17:17;7.00;;;2.83;;
20101;SDS011;10210;52.284;9.892;2023-05-10T15:19:42;8.10;;;2.50;;
20101;SDS011;10210;52.284;9.892;2023-05-10T15:22:08;5.57;;;2.43;;
20101;SDS011;10210;52.284;9.892;2023-05-10T15:24:34;6.13;;;2.37;;
20101;SDS011;10210;52.284;9.892;2023-05-10T15:26:59;6.80;;;2.67;;
20101;SDS011;10210;52.284;9.892;2023-05-10T15:29:25;6.37;;;2.90;;